sensor_id;sensor_type;location;lat;lon;timestamp;P1;durP1;ratioP1;P2;durP2;ratioP2
11988;SDS011;6054;50.966;7.094;2022-09-09T00:01:08;2.10;;;0.85;;
11988;SDS011;6054;50.966;7.094;2022-09-09T00:03:57;2.60;;;1.08;;
11988;SDS011;6054;50.966;7.094;2022-09-09T00:06:30;2.70;;;1.00;;
11988;SDS011;6054;50.966;7.094;2022-09-09T00:09:01;1.98;;;0.90;;
11988;SDS011;6054;50.966;7.094;2022-09-09T00:11:35;1.77;;;0.88;;
11988;SDS011;6054;50.966;7.094;2022-09-09T00:14:16;0.95;;;0.70;;
11988;SDS011;6054;50.966;7.094;2022-09-09T00:16:51;4.57;;;0.93;;
11988;SDS011;6054;50.966;7.094;2022-09-09T00:19:32;2.72;;;0.88;;
11988;SDS011;6054;50.966;7.094;2022-09-09T00:22:08;1.48;;;0.85;;
11988;SDS011;6054;50.966;7.094;2022-09-09T00:24:42;1.42;;;0.90;;
11988;SDS011;6054;50.966;7.094;2022-09-09T00:27:13;2.05;;;0.95;;
11988;SDS011;6054;50.966;7.094;2022-09-09T00:29:51;2.10;;;0.70;;
11988;SDS011;6054;50.966;7.094;2022-09-09T00:32:40;3.08;;;1.10;;
11988;SDS011;6054;50.966;7.094;2022-09-09T00:35:12;4.50;;;1.30;;
11988;SDS011;6054;50.966;7.094;2022-09-09T00:37:43;1.25;;;1.00;;
11988;SDS011;6054;50.966;7.094;2022-09-09T00:40:16;2.40;;;0.70;;
11988;SDS011;6054;50.966;7.094;2022-09-09T00:42:50;2.50;;;0.93;;
11988;SDS011;6054;50.966;7.094;2022-09-09T00:45:35;2.78;;;1.20;;
11988;SDS011;6054;50.966;7.094;2022-09-09T00:48:13;2.45;;;0.95;;
11988;SDS011;6054;50.966;7.094;2022-09-09T00:50:44;3.88;;;1.10;;
11988;SDS011;6054;50.966;7.094;2022-09-09T00:53:18;2.90;;;0.98;;
11988;SDS011;6054;50.966;7.094;2022-09-09T00:55:52;3.65;;;1.20;;
11988;SDS011;6054;50.966;7.094;2022-09-09T00:58:25;1.65;;;1.02;;
11988;SDS011;6054;50.966;7.094;2022-09-09T01:00:54;2.55;;;0.68;;
11988;SDS011;6054;50.966;7.094;2022-09-09T01:03:28;1.73;;;0.70;;
11988;SDS011;6054;50.966;7.094;2022-09-09T01:06:01;4.68;;;0.93;;
11988;SDS011;6054;50.966;7.094;2022-09-09T01:08:37;3.33;;;1.10;;
11988;SDS011;6054;50.966;7.094;2022-09-09T01:11:16;2.08;;;1.10;;
11988;SDS011;6054;50.966;7.094;2022-09-09T01:13:49;1.23;;;0.73;;
11988;SDS011;6054;50.966;7.094;2022-09-09T01:16:23;1.92;;;1.15;;
11988;SDS011;6054;50.966;7.094;2022-09-09T01:18:53;5.65;;;1.20;;
11988;SDS011;6054;50.966;7.094;2022-09-09T01:21:25;2.70;;;0.85;;
11988;SDS011;6054;50.966;7.094;2022-09-09T01:24:04;3.15;;;0.90;;
11988;SDS011;6054;50.966;7.094;2022-09-09T01:26:46;0.85;;;0.65;;
11988;SDS011;6054;50.966;7.094;2022-09-09T01:29:16;1.85;;;0.80;;
11988;SDS011;6054;50.966;7.094;2022-09-09T01:31:51;1.30;;;0.82;;
11988;SDS011;6054;50.966;7.094;2022-09-09T01:34:20;1.92;;;0.73;;
11988;SDS011;6054;50.966;7.094;2022-09-09T01:36:49;1.35;;;0.90;;
11988;SDS011;6054;50.966;7.094;2022-09-09T01:39:22;2.67;;;0.90;;
11988;SDS011;6054;50.966;7.094;2022-09-09T01:41:51;1.63;;;0.70;;
11988;SDS011;6054;50.966;7.094;2022-09-09T01:44:18;3.15;;;1.27;;
11988;SDS011;6054;50.966;7.094;2022-09-09T01:46:45;2.25;;;0.80;;
11988;SDS011;6054;50.966;7.094;2022-09-09T01:49:12;2.90;;;1.00;;
11988;SDS011;6054;50.966;7.094;2022-09-09T01:51:39;5.55;;;1.17;;
11988;SDS011;6054;50.966;7.094;2022-09-09T01:54:09;2.85;;;1.50;;
11988;SDS011;6054;50.966;7.094;2022-09-09T01:56:39;2.25;;;0.90;;
11988;SDS011;6054;50.966;7.094;2022-09-09T01:59:18;2.53;;;0.73;;
11988;SDS011;6054;50.966;7.094;2022-09-09T02:02:05;2.30;;;0.80;;
11988;SDS011;6054;50.966;7.094;2022-09-09T02:04:46;2.28;;;0.65;;
11988;SDS011;6054;50.966;7.094;2022-09-09T02:07:25;2.10;;;1.08;;
11988;SDS011;6054;50.966;7.094;2022-09-09T02:10:01;4.65;;;0.90;;
11988;SDS011;6054;50.966;7.094;2022-09-09T02:12:34;1.08;;;0.70;;
11988;SDS011;6054;50.966;7.094;2022-09-09T02:15:08;1.90;;;0.88;;
11988;SDS011;6054;50.966;7.094;2022-09-09T02:17:41;2.72;;;0.88;;
11988;SDS011;6054;50.966;7.094;2022-09-09T02:20:09;2.40;;;0.93;;
11988;SDS011;6054;50.966;7.094;2022-09-09T02:22:39;0.80;;;0.80;;
11988;SDS011;6054;50.966;7.094;2022-09-09T02:25:09;6.55;;;1.20;;
11988;SDS011;6054;50.966;7.094;2022-09-09T02:27:38;3.05;;;1.08;;
11988;SDS011;6054;50.966;7.094;2022-09-09T02:30:09;4.40;;;1.00;;
11988;SDS011;6054;50.966;7.094;2022-09-09T02:32:36;1.60;;;0.80;;
11988;SDS011;6054;50.966;7.094;2022-09-09T02:35:07;2.50;;;0.90;;
11988;SDS011;6054;50.966;7.094;2022-09-09T02:37:37;2.55;;;0.90;;
11988;SDS011;6054;50.966;7.094;2022-09-09T02:40:07;3.03;;;0.90;;
11988;SDS011;6054;50.966;7.094;2022-09-09T02:42:38;2.53;;;1.05;;
11988;SDS011;6054;50.966;7.094;2022-09-09T02:45:06;2.28;;;0.90;;
11988;SDS011;6054;50.966;7.094;2022-09-09T02:47:37;1.55;;;0.70;;
11988;SDS011;6054;50.966;7.094;2022-09-09T02:50:12;3.03;;;0.90;;
11988;SDS011;6054;50.966;7.094;2022-09-09T02:52:44;5.10;;;1.58;;
11988;SDS011;6054;50.966;7.094;2022-09-09T02:55:20;3.10;;;0.90;;
11988;SDS011;6054;50.966;7.094;2022-09-09T02:57:56;2.33;;;1.30;;
11988;SDS011;6054;50.966;7.094;2022-09-09T03:00:26;3.15;;;1.23;;
11988;SDS011;6054;50.966;7.094;2022-09-09T03:02:54;2.13;;;1.00;;
11988;SDS011;6054;50.966;7.094;2022-09-09T03:05:21;1.85;;;0.85;;
11988;SDS011;6054;50.966;7.094;2022-09-09T03:07:48;4.40;;;1.20;;
11988;SDS011;6054;50.966;7.094;2022-09-09T03:10:15;2.10;;;0.95;;
11988;SDS011;6054;50.966;7.094;2022-09-09T03:12:42;6.10;;;1.40;;
11988;SDS011;6054;50.966;7.094;2022-09-09T03:15:09;3.60;;;1.00;;
11988;SDS011;6054;50.966;7.094;2022-09-09T03:17:38;1.77;;;0.82;;
11988;SDS011;6054;50.966;7.094;2022-09-09T03:20:12;1.52;;;0.95;;
11988;SDS011;6054;50.966;7.094;2022-09-09T03:22:39;1.98;;;1.02;;
11988;SDS011;6054;50.966;7.094;2022-09-09T03:25:06;0.68;;;0.68;;
11988;SDS011;6054;50.966;7.094;2022-09-09T03:27:33;3.53;;;1.10;;
11988;SDS011;6054;50.966;7.094;2022-09-09T03:30:00;4.07;;;1.00;;
11988;SDS011;6054;50.966;7.094;2022-09-09T03:32:28;4.93;;;1.20;;
11988;SDS011;6054;50.966;7.094;2022-09-09T03:34:57;3.63;;;1.05;;
11988;SDS011;6054;50.966;7.094;2022-09-09T03:37:24;3.42;;;0.93;;
11988;SDS011;6054;50.966;7.094;2022-09-09T03:39:51;2.67;;;0.93;;
11988;SDS011;6054;50.966;7.094;2022-09-09T03:42:19;3.28;;;0.90;;
11988;SDS011;6054;50.966;7.094;2022-09-09T03:44:46;3.08;;;0.90;;
11988;SDS011;6054;50.966;7.094;2022-09-09T03:47:14;1.55;;;0.90;;
11988;SDS011;6054;50.966;7.094;2022-09-09T03:49:42;3.50;;;1.10;;
11988;SDS011;6054;50.966;7.094;2022-09-09T03:52:10;1.80;;;0.93;;
11988;SDS011;6054;50.966;7.094;2022-09-09T03:54:37;3.22;;;1.08;;
11988;SDS011;6054;50.966;7.094;2022-09-09T03:57:04;2.40;;;1.15;;
11988;SDS011;6054;50.966;7.094;2022-09-09T03:59:31;4.00;;;0.90;;
11988;SDS011;6054;50.966;7.094;2022-09-09T04:01:58;2.58;;;1.00;;
11988;SDS011;6054;50.966;7.094;2022-09-09T04:04:25;2.42;;;0.90;;
11988;SDS011;6054;50.966;7.094;2022-09-09T04:06:52;2.28;;;1.00;;
11988;SDS011;6054;50.966;7.094;2022-09-09T04:09:20;4.25;;;1.35;;
11988;SDS011;6054;50.966;7.094;2022-09-09T04:11:48;2.08;;;0.88;;
11988;SDS011;6054;50.966;7.094;2022-09-09T04:14:15;3.78;;;1.05;;
11988;SDS011;6054;50.966;7.094;2022-09-09T04:16:48;5.70;;;1.10;;
11988;SDS011;6054;50.966;7.094;2022-09-09T04:19:31;2.72;;;0.98;;
11988;SDS011;6054;50.966;7.094;2022-09-09T04:21:58;2.60;;;1.00;;
11988;SDS011;6054;50.966;7.094;2022-09-09T04:24:26;1.98;;;0.90;;
11988;SDS011;6054;50.966;7.094;2022-09-09T04:26:54;2.50;;;0.85;;
11988;SDS011;6054;50.966;7.094;2022-09-09T04:29:21;1.92;;;1.10;;
11988;SDS011;6054;50.966;7.094;2022-09-09T04:31:47;3.45;;;1.20;;
11988;SDS011;6054;50.966;7.094;2022-09-09T04:45:15;3.83;;;1.27;;
11988;SDS011;6054;50.966;7.094;2022-09-09T04:47:43;3.45;;;1.30;;
11988;SDS011;6054;50.966;7.094;2022-09-09T04:50:14;3.08;;;1.30;;
11988;SDS011;6054;50.966;7.094;2022-09-09T04:52:41;2.72;;;1.40;;
11988;SDS011;6054;50.966;7.094;2022-09-09T04:55:08;2.65;;;1.17;;
11988;SDS011;6054;50.966;7.094;2022-09-09T04:57:35;3.25;;;1.00;;
11988;SDS011;6054;50.966;7.094;2022-09-09T05:00:03;3.80;;;1.17;;
11988;SDS011;6054;50.966;7.094;2022-09-09T05:02:31;1.70;;;0.95;;
11988;SDS011;6054;50.966;7.094;2022-09-09T05:04:58;3.85;;;0.98;;
11988;SDS011;6054;50.966;7.094;2022-09-09T05:07:26;2.83;;;0.77;;
11988;SDS011;6054;50.966;7.094;2022-09-09T05:09:54;2.72;;;1.27;;
11988;SDS011;6054;50.966;7.094;2022-09-09T05:12:24;3.53;;;0.93;;
11988;SDS011;6054;50.966;7.094;2022-09-09T05:14:51;2.38;;;1.00;;
11988;SDS011;6054;50.966;7.094;2022-09-09T05:17:18;2.35;;;1.00;;
11988;SDS011;6054;50.966;7.094;2022-09-09T05:19:53;6.03;;;1.30;;
11988;SDS011;6054;50.966;7.094;2022-09-09T05:22:20;4.20;;;0.98;;
11988;SDS011;6054;50.966;7.094;2022-09-09T05:24:48;4.47;;;1.40;;
11988;SDS011;6054;50.966;7.094;2022-09-09T05:27:15;4.57;;;1.48;;
11988;SDS011;6054;50.966;7.094;2022-09-09T05:29:43;1.55;;;0.90;;
11988;SDS011;6054;50.966;7.094;2022-09-09T05:32:10;5.18;;;0.90;;
11988;SDS011;6054;50.966;7.094;2022-09-09T05:34:36;2.38;;;1.13;;
11988;SDS011;6054;50.966;7.094;2022-09-09T05:37:05;8.75;;;1.70;;
11988;SDS011;6054;50.966;7.094;2022-09-09T05:39:32;8.50;;;1.63;;
11988;SDS011;6054;50.966;7.094;2022-09-09T05:42:01;3.65;;;1.20;;
11988;SDS011;6054;50.966;7.094;2022-09-09T05:44:29;5.85;;;1.35;;
11988;SDS011;6054;50.966;7.094;2022-09-09T05:46:57;3.70;;;1.10;;
11988;SDS011;6054;50.966;7.094;2022-09-09T05:49:23;6.47;;;1.13;;
11988;SDS011;6054;50.966;7.094;2022-09-09T05:51:50;7.03;;;2.08;;
11988;SDS011;6054;50.966;7.094;2022-09-09T05:54:19;3.90;;;1.50;;
11988;SDS011;6054;50.966;7.094;2022-09-09T05:56:46;3.38;;;1.30;;
11988;SDS011;6054;50.966;7.094;2022-09-09T05:59:15;4.68;;;1.20;;
11988;SDS011;6054;50.966;7.094;2022-09-09T06:01:43;3.47;;;1.48;;
11988;SDS011;6054;50.966;7.094;2022-09-09T06:04:10;2.45;;;1.20;;
11988;SDS011;6054;50.966;7.094;2022-09-09T06:06:37;4.22;;;1.20;;
11988;SDS011;6054;50.966;7.094;2022-09-09T06:09:05;4.18;;;1.33;;
11988;SDS011;6054;50.966;7.094;2022-09-09T06:11:36;3.70;;;1.10;;
11988;SDS011;6054;50.966;7.094;2022-09-09T06:14:04;5.22;;;1.25;;
11988;SDS011;6054;50.966;7.094;2022-09-09T06:16:32;6.55;;;1.55;;
11988;SDS011;6054;50.966;7.094;2022-09-09T06:18:59;4.40;;;1.30;;
11988;SDS011;6054;50.966;7.094;2022-09-09T06:21:27;5.00;;;1.00;;
11988;SDS011;6054;50.966;7.094;2022-09-09T06:23:56;3.20;;;1.08;;
11988;SDS011;6054;50.966;7.094;2022-09-09T06:26:23;2.55;;;1.38;;
11988;SDS011;6054;50.966;7.094;2022-09-09T06:28:53;3.53;;;0.95;;
11988;SDS011;6054;50.966;7.094;2022-09-09T06:31:22;2.08;;;1.00;;
11988;SDS011;6054;50.966;7.094;2022-09-09T06:33:51;3.67;;;1.30;;
11988;SDS011;6054;50.966;7.094;2022-09-09T06:36:20;2.63;;;1.10;;
11988;SDS011;6054;50.966;7.094;2022-09-09T06:38:48;4.82;;;1.50;;
11988;SDS011;6054;50.966;7.094;2022-09-09T06:41:15;2.47;;;0.95;;
11988;SDS011;6054;50.966;7.094;2022-09-09T06:43:44;3.13;;;1.23;;
11988;SDS011;6054;50.966;7.094;2022-09-09T06:46:13;3.40;;;1.15;;
11988;SDS011;6054;50.966;7.094;2022-09-09T06:48:41;3.63;;;1.25;;
11988;SDS011;6054;50.966;7.094;2022-09-09T06:51:10;3.72;;;1.63;;
11988;SDS011;6054;50.966;7.094;2022-09-09T06:53:38;5.28;;;1.30;;
11988;SDS011;6054;50.966;7.094;2022-09-09T06:56:17;4.45;;;1.10;;
11988;SDS011;6054;50.966;7.094;2022-09-09T06:58:46;7.07;;;1.27;;
11988;SDS011;6054;50.966;7.094;2022-09-09T07:01:15;2.38;;;1.05;;
11988;SDS011;6054;50.966;7.094;2022-09-09T07:03:45;3.65;;;1.20;;
11988;SDS011;6054;50.966;7.094;2022-09-09T07:06:13;2.95;;;1.25;;
11988;SDS011;6054;50.966;7.094;2022-09-09T07:08:42;4.55;;;1.10;;
11988;SDS011;6054;50.966;7.094;2022-09-09T07:11:09;3.50;;;1.42;;
11988;SDS011;6054;50.966;7.094;2022-09-09T07:13:36;3.42;;;1.52;;
11988;SDS011;6054;50.966;7.094;2022-09-09T07:16:03;4.65;;;1.42;;
11988;SDS011;6054;50.966;7.094;2022-09-09T07:18:33;4.95;;;1.60;;
11988;SDS011;6054;50.966;7.094;2022-09-09T07:21:00;3.47;;;1.58;;
11988;SDS011;6054;50.966;7.094;2022-09-09T07:23:28;5.10;;;1.30;;
11988;SDS011;6054;50.966;7.094;2022-09-09T07:25:55;3.20;;;1.45;;
11988;SDS011;6054;50.966;7.094;2022-09-09T07:34:02;6.25;;;1.60;;
11988;SDS011;6054;50.966;7.094;2022-09-09T07:36:31;3.17;;;1.00;;
11988;SDS011;6054;50.966;7.094;2022-09-09T07:38:59;2.53;;;1.10;;
11988;SDS011;6054;50.966;7.094;2022-09-09T07:41:29;2.53;;;1.13;;
11988;SDS011;6054;50.966;7.094;2022-09-09T07:43:59;4.30;;;1.20;;
11988;SDS011;6054;50.966;7.094;2022-09-09T07:46:29;3.35;;;1.10;;
11988;SDS011;6054;50.966;7.094;2022-09-09T07:48:56;5.63;;;1.75;;
11988;SDS011;6054;50.966;7.094;2022-09-09T07:51:25;11.25;;;1.70;;
11988;SDS011;6054;50.966;7.094;2022-09-09T07:53:53;4.22;;;1.63;;
11988;SDS011;6054;50.966;7.094;2022-09-09T07:56:22;3.40;;;1.10;;
11988;SDS011;6054;50.966;7.094;2022-09-09T07:58:49;1.58;;;0.98;;
11988;SDS011;6054;50.966;7.094;2022-09-09T08:01:18;3.67;;;1.25;;
11988;SDS011;6054;50.966;7.094;2022-09-09T08:03:47;5.22;;;1.33;;
11988;SDS011;6054;50.966;7.094;2022-09-09T08:06:19;3.03;;;1.30;;
11988;SDS011;6054;50.966;7.094;2022-09-09T08:08:49;3.78;;;1.15;;
11988;SDS011;6054;50.966;7.094;2022-09-09T08:11:16;5.65;;;1.77;;
11988;SDS011;6054;50.966;7.094;2022-09-09T08:13:43;6.15;;;1.25;;
11988;SDS011;6054;50.966;7.094;2022-09-09T08:16:10;4.53;;;1.48;;
11988;SDS011;6054;50.966;7.094;2022-09-09T08:18:38;4.10;;;1.50;;
11988;SDS011;6054;50.966;7.094;2022-09-09T08:21:06;4.60;;;1.23;;
11988;SDS011;6054;50.966;7.094;2022-09-09T08:23:36;5.43;;;1.45;;
11988;SDS011;6054;50.966;7.094;2022-09-09T08:26:06;5.20;;;2.03;;
11988;SDS011;6054;50.966;7.094;2022-09-09T08:28:35;7.43;;;1.60;;
11988;SDS011;6054;50.966;7.094;2022-09-09T08:31:06;2.80;;;1.13;;
11988;SDS011;6054;50.966;7.094;2022-09-09T08:33:38;3.70;;;0.93;;
11988;SDS011;6054;50.966;7.094;2022-09-09T08:36:06;4.93;;;1.38;;
11988;SDS011;6054;50.966;7.094;2022-09-09T08:38:35;3.67;;;1.17;;
11988;SDS011;6054;50.966;7.094;2022-09-09T08:44:04;4.03;;;1.25;;
11988;SDS011;6054;50.966;7.094;2022-09-09T08:46:36;4.45;;;1.30;;
11988;SDS011;6054;50.966;7.094;2022-09-09T08:49:15;4.63;;;1.20;;
11988;SDS011;6054;50.966;7.094;2022-09-09T08:51:57;3.75;;;1.10;;
11988;SDS011;6054;50.966;7.094;2022-09-09T08:54:24;4.72;;;1.50;;
11988;SDS011;6054;50.966;7.094;2022-09-09T08:56:58;4.43;;;1.75;;
11988;SDS011;6054;50.966;7.094;2022-09-09T08:59:26;4.82;;;1.30;;
11988;SDS011;6054;50.966;7.094;2022-09-09T09:01:58;4.03;;;1.48;;
11988;SDS011;6054;50.966;7.094;2022-09-09T09:04:37;2.88;;;1.20;;
11988;SDS011;6054;50.966;7.094;2022-09-09T09:07:14;6.28;;;1.63;;
11988;SDS011;6054;50.966;7.094;2022-09-09T09:09:50;4.47;;;1.33;;
11988;SDS011;6054;50.966;7.094;2022-09-09T09:12:28;3.60;;;1.25;;
11988;SDS011;6054;50.966;7.094;2022-09-09T09:15:05;5.85;;;1.58;;
11988;SDS011;6054;50.966;7.094;2022-09-09T09:17:41;3.53;;;1.27;;
11988;SDS011;6054;50.966;7.094;2022-09-09T09:20:11;2.45;;;0.98;;
11988;SDS011;6054;50.966;7.094;2022-09-09T09:22:42;1.70;;;0.82;;
11988;SDS011;6054;50.966;7.094;2022-09-09T09:25:14;1.85;;;0.98;;
11988;SDS011;6054;50.966;7.094;2022-09-09T09:27:44;3.28;;;1.00;;
11988;SDS011;6054;50.966;7.094;2022-09-09T09:30:19;4.45;;;1.00;;
11988;SDS011;6054;50.966;7.094;2022-09-09T09:32:51;4.00;;;1.30;;
11988;SDS011;6054;50.966;7.094;2022-09-09T09:35:21;5.55;;;1.20;;
11988;SDS011;6054;50.966;7.094;2022-09-09T09:37:48;2.33;;;0.90;;
11988;SDS011;6054;50.966;7.094;2022-09-09T09:40:16;3.30;;;1.20;;
11988;SDS011;6054;50.966;7.094;2022-09-09T09:42:48;2.65;;;1.05;;
11988;SDS011;6054;50.966;7.094;2022-09-09T09:45:20;2.22;;;1.00;;
11988;SDS011;6054;50.966;7.094;2022-09-09T09:48:00;5.22;;;1.25;;
11988;SDS011;6054;50.966;7.094;2022-09-09T09:50:28;4.03;;;0.90;;
11988;SDS011;6054;50.966;7.094;2022-09-09T09:52:57;5.07;;;0.82;;
11988;SDS011;6054;50.966;7.094;2022-09-09T09:55:26;3.60;;;1.40;;
11988;SDS011;6054;50.966;7.094;2022-09-09T09:58:00;4.13;;;1.10;;
11988;SDS011;6054;50.966;7.094;2022-09-09T10:00:29;2.42;;;0.93;;
11988;SDS011;6054;50.966;7.094;2022-09-09T10:02:56;2.92;;;0.88;;
11988;SDS011;6054;50.966;7.094;2022-09-09T10:05:26;2.38;;;0.82;;
11988;SDS011;6054;50.966;7.094;2022-09-09T10:08:01;3.10;;;1.00;;
11988;SDS011;6054;50.966;7.094;2022-09-09T10:10:33;2.28;;;0.80;;
11988;SDS011;6054;50.966;7.094;2022-09-09T10:13:09;4.60;;;0.70;;
11988;SDS011;6054;50.966;7.094;2022-09-09T10:15:42;3.22;;;1.17;;
11988;SDS011;6054;50.966;7.094;2022-09-09T10:18:19;2.38;;;1.10;;
11988;SDS011;6054;50.966;7.094;2022-09-09T10:21:02;3.83;;;0.90;;
11988;SDS011;6054;50.966;7.094;2022-09-09T10:23:42;2.38;;;1.08;;
11988;SDS011;6054;50.966;7.094;2022-09-09T10:26:22;3.40;;;0.70;;
11988;SDS011;6054;50.966;7.094;2022-09-09T10:29:01;1.77;;;0.80;;
11988;SDS011;6054;50.966;7.094;2022-09-09T10:31:57;3.60;;;0.98;;
11988;SDS011;6054;50.966;7.094;2022-09-09T10:34:39;1.52;;;0.77;;
11988;SDS011;6054;50.966;7.094;2022-09-09T10:37:20;1.02;;;0.80;;
11988;SDS011;6054;50.966;7.094;2022-09-09T10:39:55;1.02;;;0.80;;
11988;SDS011;6054;50.966;7.094;2022-09-09T10:42:31;2.38;;;0.95;;
11988;SDS011;6054;50.966;7.094;2022-09-09T10:45:02;3.25;;;0.80;;
11988;SDS011;6054;50.966;7.094;2022-09-09T10:47:46;2.22;;;0.65;;
11988;SDS011;6054;50.966;7.094;2022-09-09T10:50:28;4.22;;;1.00;;
11988;SDS011;6054;50.966;7.094;2022-09-09T10:53:08;3.42;;;0.80;;
11988;SDS011;6054;50.966;7.094;2022-09-09T10:55:40;1.92;;;0.75;;
11988;SDS011;6054;50.966;7.094;2022-09-09T10:58:10;2.28;;;1.00;;
11988;SDS011;6054;50.966;7.094;2022-09-09T11:00:44;2.63;;;0.80;;
11988;SDS011;6054;50.966;7.094;2022-09-09T11:03:15;3.40;;;1.00;;
11988;SDS011;6054;50.966;7.094;2022-09-09T11:05:49;2.15;;;1.00;;
11988;SDS011;6054;50.966;7.094;2022-09-09T11:08:20;3.78;;;0.88;;
11988;SDS011;6054;50.966;7.094;2022-09-09T11:10:50;8.52;;;0.98;;
11988;SDS011;6054;50.966;7.094;2022-09-09T11:13:24;3.72;;;1.05;;
11988;SDS011;6054;50.966;7.094;2022-09-09T11:15:58;4.60;;;1.00;;
11988;SDS011;6054;50.966;7.094;2022-09-09T11:18:30;1.80;;;0.80;;
11988;SDS011;6054;50.966;7.094;2022-09-09T11:21:02;4.03;;;0.70;;
11988;SDS011;6054;50.966;7.094;2022-09-09T11:23:36;5.38;;;0.95;;
11988;SDS011;6054;50.966;7.094;2022-09-09T11:26:08;2.15;;;0.85;;
11988;SDS011;6054;50.966;7.094;2022-09-09T11:28:46;2.92;;;0.95;;
11988;SDS011;6054;50.966;7.094;2022-09-09T11:31:31;2.53;;;0.88;;
11988;SDS011;6054;50.966;7.094;2022-09-09T11:34:15;2.60;;;1.13;;
11988;SDS011;6054;50.966;7.094;2022-09-09T11:37:01;2.13;;;0.68;;
11988;SDS011;6054;50.966;7.094;2022-09-09T11:39:41;2.50;;;0.98;;
11988;SDS011;6054;50.966;7.094;2022-09-09T11:42:18;0.70;;;0.70;;
11988;SDS011;6054;50.966;7.094;2022-09-09T11:44:46;0.80;;;0.50;;
11988;SDS011;6054;50.966;7.094;2022-09-09T11:47:20;1.95;;;0.95;;
11988;SDS011;6054;50.966;7.094;2022-09-09T11:49:55;1.30;;;0.90;;
11988;SDS011;6054;50.966;7.094;2022-09-09T11:52:36;2.95;;;0.80;;
11988;SDS011;6054;50.966;7.094;2022-09-09T11:55:08;2.10;;;0.80;;
11988;SDS011;6054;50.966;7.094;2022-09-09T11:57:38;1.38;;;0.70;;
11988;SDS011;6054;50.966;7.094;2022-09-09T12:00:06;3.80;;;0.88;;
11988;SDS011;6054;50.966;7.094;2022-09-09T12:02:48;2.50;;;0.80;;
11988;SDS011;6054;50.966;7.094;2022-09-09T12:05:17;2.72;;;1.20;;
11988;SDS011;6054;50.966;7.094;2022-09-09T12:07:46;2.13;;;0.82;;
11988;SDS011;6054;50.966;7.094;2022-09-09T12:10:20;3.05;;;1.00;;
11988;SDS011;6054;50.966;7.094;2022-09-09T12:12:49;2.42;;;0.80;;
11988;SDS011;6054;50.966;7.094;2022-09-09T12:15:20;1.67;;;0.70;;
11988;SDS011;6054;50.966;7.094;2022-09-09T12:17:51;2.13;;;0.82;;
11988;SDS011;6054;50.966;7.094;2022-09-09T12:20:22;2.50;;;1.05;;
11988;SDS011;6054;50.966;7.094;2022-09-09T12:22:56;2.03;;;0.90;;
11988;SDS011;6054;50.966;7.094;2022-09-09T12:25:48;1.95;;;0.90;;
11988;SDS011;6054;50.966;7.094;2022-09-09T12:28:25;3.30;;;0.70;;
11988;SDS011;6054;50.966;7.094;2022-09-09T12:31:01;2.95;;;1.10;;
11988;SDS011;6054;50.966;7.094;2022-09-09T12:33:33;2.08;;;0.82;;
11988;SDS011;6054;50.966;7.094;2022-09-09T12:36:03;1.65;;;0.82;;
11988;SDS011;6054;50.966;7.094;2022-09-09T12:38:37;1.95;;;0.80;;
11988;SDS011;6054;50.966;7.094;2022-09-09T12:41:15;2.72;;;0.65;;
11988;SDS011;6054;50.966;7.094;2022-09-09T12:43:45;2.40;;;0.80;;
11988;SDS011;6054;50.966;7.094;2022-09-09T12:46:14;2.83;;;0.95;;
11988;SDS011;6054;50.966;7.094;2022-09-09T12:48:49;1.75;;;0.82;;
11988;SDS011;6054;50.966;7.094;2022-09-09T12:51:21;1.42;;;0.70;;
11988;SDS011;6054;50.966;7.094;2022-09-09T12:53:52;0.93;;;0.65;;
11988;SDS011;6054;50.966;7.094;2022-09-09T12:56:19;6.32;;;0.90;;
11988;SDS011;6054;50.966;7.094;2022-09-09T12:58:48;3.28;;;0.88;;
11988;SDS011;6054;50.966;7.094;2022-09-09T13:01:20;2.70;;;0.93;;
11988;SDS011;6054;50.966;7.094;2022-09-09T13:03:48;1.75;;;0.93;;
11988;SDS011;6054;50.966;7.094;2022-09-09T13:06:18;2.28;;;0.90;;
11988;SDS011;6054;50.966;7.094;2022-09-09T13:08:48;6.05;;;1.10;;
11988;SDS011;6054;50.966;7.094;2022-09-09T13:11:16;2.75;;;1.10;;
11988;SDS011;6054;50.966;7.094;2022-09-09T13:13:49;3.00;;;0.93;;
11988;SDS011;6054;50.966;7.094;2022-09-09T13:16:19;3.72;;;1.00;;
11988;SDS011;6054;50.966;7.094;2022-09-09T13:18:48;3.90;;;1.05;;
11988;SDS011;6054;50.966;7.094;2022-09-09T13:21:15;3.13;;;1.00;;
11988;SDS011;6054;50.966;7.094;2022-09-09T13:23:47;2.00;;;0.60;;
11988;SDS011;6054;50.966;7.094;2022-09-09T13:26:22;1.17;;;0.52;;
11988;SDS011;6054;50.966;7.094;2022-09-09T13:28:51;2.70;;;1.08;;
11988;SDS011;6054;50.966;7.094;2022-09-09T13:31:20;5.05;;;1.17;;
11988;SDS011;6054;50.966;7.094;2022-09-09T13:33:49;2.38;;;0.90;;
11988;SDS011;6054;50.966;7.094;2022-09-09T13:36:18;1.45;;;0.60;;
11988;SDS011;6054;50.966;7.094;2022-09-09T13:38:57;1.55;;;0.70;;
11988;SDS011;6054;50.966;7.094;2022-09-09T13:41:28;2.17;;;0.60;;
11988;SDS011;6054;50.966;7.094;2022-09-09T13:43:58;0.93;;;0.52;;
11988;SDS011;6054;50.966;7.094;2022-09-09T13:46:27;6.55;;;0.88;;
11988;SDS011;6054;50.966;7.094;2022-09-09T13:48:58;1.50;;;0.77;;
11988;SDS011;6054;50.966;7.094;2022-09-09T13:51:29;0.85;;;0.50;;
11988;SDS011;6054;50.966;7.094;2022-09-09T13:54:03;3.88;;;0.63;;
11988;SDS011;6054;50.966;7.094;2022-09-09T13:56:31;2.03;;;0.50;;
11988;SDS011;6054;50.966;7.094;2022-09-09T13:58:58;3.20;;;0.60;;
11988;SDS011;6054;50.966;7.094;2022-09-09T14:01:25;0.57;;;0.57;;
11988;SDS011;6054;50.966;7.094;2022-09-09T14:03:52;0.95;;;0.68;;
11988;SDS011;6054;50.966;7.094;2022-09-09T14:06:19;1.02;;;0.50;;
11988;SDS011;6054;50.966;7.094;2022-09-09T14:08:46;0.95;;;0.60;;
11988;SDS011;6054;50.966;7.094;2022-09-09T14:11:15;1.10;;;0.50;;
11988;SDS011;6054;50.966;7.094;2022-09-09T14:13:43;2.22;;;0.70;;
11988;SDS011;6054;50.966;7.094;2022-09-09T14:16:11;1.52;;;0.70;;
11988;SDS011;6054;50.966;7.094;2022-09-09T14:18:38;2.30;;;0.77;;
11988;SDS011;6054;50.966;7.094;2022-09-09T14:21:05;1.90;;;0.70;;
11988;SDS011;6054;50.966;7.094;2022-09-09T14:23:33;1.52;;;0.63;;
11988;SDS011;6054;50.966;7.094;2022-09-09T14:26:00;1.17;;;0.70;;
11988;SDS011;6054;50.966;7.094;2022-09-09T14:28:32;0.80;;;0.70;;
11988;SDS011;6054;50.966;7.094;2022-09-09T14:30:59;1.65;;;0.52;;
11988;SDS011;6054;50.966;7.094;2022-09-09T14:33:27;2.15;;;0.82;;
11988;SDS011;6054;50.966;7.094;2022-09-09T14:35:56;1.85;;;0.50;;
11988;SDS011;6054;50.966;7.094;2022-09-09T14:38:23;1.05;;;0.60;;
11988;SDS011;6054;50.966;7.094;2022-09-09T14:40:50;0.50;;;0.50;;
11988;SDS011;6054;50.966;7.094;2022-09-09T14:43:18;2.22;;;0.63;;
11988;SDS011;6054;50.966;7.094;2022-09-09T14:45:46;0.93;;;0.50;;
11988;SDS011;6054;50.966;7.094;2022-09-09T14:48:16;0.65;;;0.63;;
11988;SDS011;6054;50.966;7.094;2022-09-09T14:50:43;3.55;;;0.77;;
11988;SDS011;6054;50.966;7.094;2022-09-09T14:53:10;1.95;;;0.65;;
11988;SDS011;6054;50.966;7.094;2022-09-09T14:55:37;2.42;;;0.50;;
11988;SDS011;6054;50.966;7.094;2022-09-09T14:58:04;3.50;;;0.60;;
11988;SDS011;6054;50.966;7.094;2022-09-09T15:00:32;2.83;;;0.90;;
11988;SDS011;6054;50.966;7.094;2022-09-09T15:03:00;5.20;;;0.75;;
11988;SDS011;6054;50.966;7.094;2022-09-09T15:05:27;2.08;;;0.70;;
11988;SDS011;6054;50.966;7.094;2022-09-09T15:07:54;2.97;;;0.90;;
11988;SDS011;6054;50.966;7.094;2022-09-09T15:10:21;3.22;;;0.88;;
11988;SDS011;6054;50.966;7.094;2022-09-09T15:12:48;1.33;;;0.70;;
11988;SDS011;6054;50.966;7.094;2022-09-09T15:15:15;2.17;;;1.08;;
11988;SDS011;6054;50.966;7.094;2022-09-09T15:17:42;2.65;;;0.80;;
11988;SDS011;6054;50.966;7.094;2022-09-09T15:20:10;1.77;;;0.77;;
11988;SDS011;6054;50.966;7.094;2022-09-09T15:22:37;2.95;;;0.98;;
11988;SDS011;6054;50.966;7.094;2022-09-09T15:25:05;4.22;;;0.90;;
11988;SDS011;6054;50.966;7.094;2022-09-09T15:27:33;2.05;;;0.85;;
11988;SDS011;6054;50.966;7.094;2022-09-09T15:29:59;2.10;;;0.82;;
11988;SDS011;6054;50.966;7.094;2022-09-09T15:32:27;1.33;;;0.85;;
11988;SDS011;6054;50.966;7.094;2022-09-09T15:34:54;3.95;;;1.00;;
11988;SDS011;6054;50.966;7.094;2022-09-09T15:37:22;1.73;;;0.93;;
11988;SDS011;6054;50.966;7.094;2022-09-09T15:39:48;3.20;;;1.20;;
11988;SDS011;6054;50.966;7.094;2022-09-09T15:42:15;9.57;;;1.17;;